createdAt,value
2023-02-03T00:00:22.225Z,97818.94
2023-02-03T00:02:27.001Z,97816.91
2023-02-03T00:04:31.790Z,97818.50
2023-02-03T00:06:36.704Z,97818.28
2023-02-03T00:08:41.725Z,97816.66
2023-02-03T00:10:46.774Z,97811.16
2023-02-03T00:12:56.336Z,97805.13
2023-02-03T00:15:01.161Z,97809.91
2023-02-03T00:17:05.955Z,97800.41
2023-02-03T00:19:10.628Z,97801.44
2023-02-03T00:21:15.508Z,97796.41
2023-02-03T00:23:20.245Z,97795.63
2023-02-03T00:25:25.133Z,97801.66
2023-02-03T00:27:29.832Z,97791.97
2023-02-03T00:29:37.164Z,97792.19
2023-02-03T00:31:42.030Z,97782.47
2023-02-03T00:33:46.984Z,97789.47
2023-02-03T00:35:51.825Z,97781.47
2023-02-03T00:37:57.965Z,97781.94
2023-02-03T00:40:02.674Z,97784.56
2023-02-03T00:42:08.709Z,97793.28
2023-02-03T00:44:13.515Z,97795.91
2023-02-03T00:46:20.987Z,97789.03
2023-02-03T00:48:25.740Z,97788.56
2023-02-03T00:50:30.597Z,97789.34
2023-02-03T00:52:35.531Z,97797.03
2023-02-03T00:54:40.381Z,97784.66
2023-02-03T00:56:45.758Z,97787.84
2023-02-03T00:58:50.615Z,97786.84
2023-02-03T01:00:58.371Z,97795.75
2023-02-03T01:03:05.961Z,97794.97
2023-02-03T01:05:11.439Z,97791.06
2023-02-03T01:07:16.236Z,97797.66
2023-02-03T01:09:20.922Z,97797.91
2023-02-03T01:11:27.315Z,97792.41
2023-02-03T01:13:32.089Z,97790.47
2023-02-03T01:15:37.133Z,97788.09
2023-02-03T01:17:41.902Z,97788.31
2023-02-03T01:19:49.200Z,97779.06
2023-02-03T01:21:54.644Z,97782.50
2023-02-03T01:24:02.154Z,97784.31
2023-02-03T01:26:08.689Z,97777.81
2023-02-03T01:28:13.888Z,97775.75
2023-02-03T01:30:19.045Z,97770.25
2023-02-03T01:32:25.031Z,97773.91
2023-02-03T01:34:29.730Z,97775.75
2023-02-03T01:36:38.334Z,97773.13
2023-02-03T01:38:43.182Z,97781.34
2023-02-03T01:40:48.666Z,97783.19
2023-02-03T01:42:53.362Z,97772.41
2023-02-03T01:44:58.585Z,97766.09
2023-02-03T01:47:03.552Z,97761.88
2023-02-03T01:49:12.269Z,97775.84
2023-02-03T01:51:16.969Z,97770.56
2023-02-03T01:53:24.798Z,97768.72
2023-02-03T01:55:33.120Z,97776.41
2023-02-03T01:57:42.919Z,97766.91
2023-02-03T01:59:48.592Z,97764.03
2023-02-03T02:01:54.959Z,97763.47
2023-02-03T02:04:02.335Z,97765.31
2023-02-03T02:06:09.138Z,97760.84
2023-02-03T02:08:15.739Z,97759.00
2023-02-03T02:10:23.436Z,97764.75
2023-02-03T02:12:28.083Z,97766.56
2023-02-03T02:14:34.116Z,97760.28
2023-02-03T02:16:48.627Z,97773.97
2023-02-03T02:19:06.250Z,97768.72
2023-02-03T02:21:37.213Z,97770.81
2023-02-03T02:24:10.854Z,97769.66
2023-02-03T02:26:41.654Z,97776.19
2023-02-03T02:29:15.712Z,97769.34
2023-02-03T02:31:52.874Z,97768.53
2023-02-03T02:34:06.627Z,97769.34
2023-02-03T02:36:24.403Z,97775.41
2023-02-03T02:38:41.061Z,97772.22
2023-02-03T02:40:53.476Z,97772.47
2023-02-03T02:43:08.054Z,97762.50
2023-02-03T02:45:26.483Z,97762.84
2023-02-03T02:47:32.445Z,97757.09
2023-02-03T02:49:45.457Z,97751.03
2023-02-03T02:51:51.762Z,97743.94
2023-02-03T02:53:59.514Z,97747.59
2023-02-03T02:56:10.643Z,97767.88
2023-02-03T02:58:19.387Z,97751.25
2023-02-03T03:00:25.739Z,97751.84
2023-02-03T03:02:35.689Z,97755.50
2023-02-03T03:04:48.499Z,97746.81
2023-02-03T03:07:00.493Z,97738.56
2023-02-03T03:09:08.772Z,97739.53
2023-02-03T03:11:17.285Z,97738.63
2023-02-03T03:13:28.373Z,97758.78
2023-02-03T03:15:36.353Z,97748.50
2023-02-03T03:17:51.791Z,97747.94
2023-02-03T03:20:03.802Z,97761.09
2023-02-03T03:22:10.501Z,97746.88
2023-02-03T03:24:27.237Z,97737.19
2023-02-03T03:26:38.166Z,97731.44
2023-02-03T03:28:49.667Z,97717.28
2023-02-03T03:30:55.201Z,97718.84
2023-02-03T03:33:00.759Z,97709.16
2023-02-03T03:35:09.786Z,97708.56
2023-02-03T03:37:21.027Z,97713.03
2023-02-03T03:39:31.311Z,97720.13
2023-02-03T03:41:44.108Z,97736.13
2023-02-03T03:43:51.513Z,97729.59
2023-02-03T03:46:01.252Z,97744.13
2023-02-03T03:48:12.366Z,97730.19
2023-02-03T03:50:24.940Z,97735.22
2023-02-03T03:52:34.909Z,97738.09
2023-02-03T03:54:41.813Z,97725.47
2023-02-03T03:57:01.476Z,97730.75
2023-02-03T03:59:08.638Z,97725.00
2023-02-03T04:01:14.938Z,97731.63
2023-02-03T04:03:23.603Z,97742.94
2023-02-03T04:05:31.313Z,97747.41
2023-02-03T04:07:41.449Z,97750.28
2023-02-03T04:09:46.343Z,97756.03
2023-02-03T04:12:06.666Z,97740.25
2023-02-03T04:14:11.740Z,97753.63
2023-02-03T04:16:16.508Z,97741.50
2023-02-03T04:18:21.348Z,97749.69
2023-02-03T04:20:26.943Z,97742.94
2023-02-03T04:22:34.594Z,97739.53
2023-02-03T04:24:39.301Z,97721.66
2023-02-03T04:26:44.233Z,97711.38
2023-02-03T04:28:48.907Z,97711.38
2023-02-03T04:30:53.639Z,97719.28
2023-02-03T04:32:58.361Z,97744.56
2023-02-03T04:35:03.189Z,97753.00
2023-02-03T04:37:07.951Z,97760.09
2023-02-03T04:39:15.370Z,97768.00
2023-02-03T04:41:20.559Z,97783.06
2023-02-03T04:43:25.345Z,97774.94
2023-02-03T04:45:30.102Z,97780.53
2023-02-03T04:47:34.895Z,97785.56
2023-02-03T04:49:39.625Z,97763.47
2023-02-03T04:51:44.484Z,97773.97
2023-02-03T04:53:49.257Z,97772.41
2023-02-03T04:55:56.635Z,97762.44
2023-02-03T04:58:02.619Z,97765.41
2023-02-03T05:00:08.958Z,97763.56
2023-02-03T05:02:14.004Z,97767.81
2023-02-03T05:04:18.898Z,97760.69
2023-02-03T05:06:27.063Z,97757.84
2023-02-03T05:08:32.312Z,97752.94
2023-02-03T05:10:37.014Z,97767.34
2023-02-03T05:12:44.332Z,97744.13
2023-02-03T05:14:49.058Z,97756.25
2023-02-03T05:16:54.119Z,97750.41
2023-02-03T05:18:58.908Z,97742.19
2023-02-03T05:21:03.684Z,97733.97
2023-02-03T05:23:08.374Z,97741.31
2023-02-03T05:25:13.399Z,97745.75
2023-02-03T05:27:18.502Z,97747.84
2023-02-03T05:29:25.873Z,97747.06
2023-02-03T05:31:30.624Z,97742.09
2023-02-03T05:33:35.564Z,97733.19
2023-02-03T05:35:40.249Z,97716.34
2023-02-03T05:37:47.109Z,97710.63
2023-02-03T05:39:51.929Z,97720.69
2023-02-03T05:41:57.126Z,97708.06
2023-02-03T05:44:02.777Z,97719.31
2023-02-03T05:46:10.867Z,97714.75
2023-02-03T05:48:15.597Z,97728.72
2023-02-03T05:50:20.710Z,97737.72
2023-02-03T05:52:26.746Z,97727.75
2023-02-03T05:54:31.805Z,97727.75
2023-02-03T05:56:36.508Z,97728.22
2023-02-03T05:58:41.186Z,97725.84
2023-02-03T06:00:45.990Z,97733.97
2023-02-03T06:02:57.408Z,97726.78
2023-02-03T06:05:02.377Z,97739.94
2023-02-03T06:07:07.278Z,97723.56
2023-02-03T06:09:12.210Z,97718.00
2023-02-03T06:11:16.954Z,97729.00
2023-02-03T06:13:21.586Z,97735.28
2023-02-03T06:15:26.339Z,97748.44
2023-02-03T06:17:31.170Z,97732.19
2023-02-03T06:19:38.574Z,97704.84
2023-02-03T06:21:43.295Z,97719.84
2023-02-03T06:23:48.031Z,97729.31
2023-02-03T06:25:53.645Z,97727.28
2023-02-03T06:27:58.404Z,97732.06
2023-02-03T06:30:03.341Z,97711.78
2023-02-03T06:32:08.225Z,97725.53
2023-02-03T06:34:13.043Z,97726.78
2023-02-03T06:36:20.457Z,97720.94
2023-02-03T06:38:25.551Z,97738.34
2023-02-03T06:40:30.846Z,97731.03
2023-02-03T06:42:36.070Z,97734.22
2023-02-03T06:44:41.224Z,97725.28
2023-02-03T06:46:46.161Z,97739.00
2023-02-03T06:48:50.890Z,97737.38
2023-02-03T06:50:55.808Z,97744.50
2023-02-03T06:53:03.134Z,97740.84
2023-02-03T06:55:09.825Z,97751.13
2023-02-03T06:57:14.650Z,97752.50
2023-02-03T06:59:19.503Z,97751.69
2023-02-03T07:01:26.080Z,97743.22
2023-02-03T07:03:31.010Z,97737.38
2023-02-03T07:05:36.981Z,97720.25
2023-02-03T07:07:41.942Z,97723.13
2023-02-03T07:09:49.238Z,97713.28
2023-02-03T07:11:53.935Z,97713.06
2023-02-03T07:13:58.642Z,97718.56
2023-02-03T07:16:03.355Z,97714.91
2023-02-03T07:18:08.234Z,97713.06
2023-02-03T07:20:14.139Z,97706.53
2023-02-03T07:22:19.040Z,97714.13
2023-02-03T07:24:23.746Z,97713.78
2023-02-03T07:26:31.107Z,97712.88
2023-02-03T07:28:36.328Z,97723.75
2023-02-03T07:30:41.177Z,97727.16
2023-02-03T07:32:49.916Z,97718.38
2023-02-03T07:34:54.663Z,97728.09
2023-02-03T07:37:00.063Z,97725.72
2023-02-03T07:39:04.942Z,97727.78
2023-02-03T07:41:10.073Z,97727.78
2023-02-03T07:43:17.958Z,97728.81
2023-02-03T07:45:24.961Z,97697.25
2023-02-03T07:47:30.384Z,97688.34
2023-02-03T07:49:35.512Z,97706.19
2023-02-03T07:51:40.509Z,97699.00
2023-02-03T07:53:45.208Z,97687.34
2023-02-03T07:55:50.001Z,97702.09
2023-02-03T07:57:56.705Z,97701.88
2023-02-03T08:00:04.158Z,97712.84
2023-02-03T08:02:17.313Z,97707.84
2023-02-03T08:04:22.245Z,97689.44
2023-02-03T08:06:26.894Z,97713.34
2023-02-03T08:08:32.034Z,97729.09
2023-02-03T08:10:37.646Z,97726.25
2023-02-03T08:12:45.070Z,97725.78
2023-02-03T08:14:50.004Z,97725.28
2023-02-03T08:16:57.363Z,97730.88
2023-02-03T08:19:02.024Z,97737.03
2023-02-03T08:21:07.273Z,97732.91
2023-02-03T08:23:12.658Z,97741.13
2023-02-03T08:25:17.674Z,97749.56
2023-02-03T08:27:24.500Z,97733.56
2023-02-03T08:29:29.200Z,97711.47
2023-02-03T08:31:34.266Z,97718.31
2023-02-03T08:33:41.744Z,97731.25
2023-02-03T08:35:50.229Z,97729.41
2023-02-03T08:37:55.824Z,97742.09
2023-02-03T08:40:00.923Z,97720.81
2023-02-03T08:42:05.870Z,97729.25
2023-02-03T08:44:10.832Z,97724.22
2023-02-03T08:46:16.953Z,97712.38
2023-02-03T08:48:21.778Z,97723.13
2023-02-03T08:50:29.519Z,97721.19
2023-02-03T08:52:34.474Z,97716.75
2023-02-03T08:54:39.704Z,97726.22
2023-02-03T08:56:44.687Z,97737.06
2023-02-03T08:58:49.660Z,97740.25
2023-02-03T09:00:55.595Z,97729.50
2023-02-03T09:03:00.457Z,97726.41
2023-02-03T09:05:05.322Z,97709.34
2023-02-03T09:07:13.466Z,97710.94
2023-02-03T09:09:18.436Z,97713.34
2023-02-03T09:11:23.171Z,97696.75
2023-02-03T09:13:28.076Z,97711.97
2023-02-03T09:15:32.857Z,97686.72
2023-02-03T09:17:37.600Z,97708.00
2023-02-03T09:19:42.478Z,97706.38
2023-02-03T09:21:49.240Z,97722.97
2023-02-03T09:23:57.293Z,97724.22
2023-02-03T09:26:04.908Z,97733.72
2023-02-03T09:28:09.924Z,97717.16
2023-02-03T09:30:17.077Z,97722.41
2023-02-03T09:32:22.327Z,97725.84
2023-02-03T09:34:27.383Z,97714.03
2023-02-03T09:36:32.375Z,97711.41
2023-02-03T09:38:38.068Z,97701.91
2023-02-03T09:40:45.470Z,97690.25
2023-02-03T09:43:11.439Z,97696.00
2023-02-03T09:45:24.033Z,97691.88
2023-02-03T09:47:33.499Z,97701.69
2023-02-03T09:49:42.584Z,97705.69
2023-02-03T09:51:52.390Z,97712.09
2023-02-03T09:54:02.771Z,97700.31
2023-02-03T09:56:21.209Z,97702.94
2023-02-03T09:58:26.495Z,97696.38
2023-02-03T10:00:35.101Z,97699.25
2023-02-03T10:02:53.080Z,97710.81
2023-02-03T10:05:03.113Z,97713.47
2023-02-03T10:07:20.220Z,97703.19
2023-02-03T10:09:42.447Z,97699.97
2023-02-03T10:12:04.937Z,97712.34
2023-02-03T10:14:25.746Z,97708.97
2023-02-03T10:16:44.947Z,97716.88
2023-02-03T10:18:53.925Z,97718.25
2023-02-03T10:21:02.806Z,97690.88
2023-02-03T10:23:14.746Z,97712.75
2023-02-03T10:25:25.112Z,97715.91
2023-02-03T10:27:34.080Z,97719.38
2023-02-03T10:29:45.343Z,97716.75
2023-02-03T10:31:50.505Z,97703.09
2023-02-03T10:34:02.319Z,97693.84
2023-02-03T10:36:18.185Z,97699.41
2023-02-03T10:38:34.127Z,97692.88
2023-02-03T10:40:40.057Z,97694.78
2023-02-03T10:43:02.498Z,97691.91
2023-02-03T10:45:08.178Z,97689.84
2023-02-03T10:47:24.980Z,97687.75
2023-02-03T10:49:31.763Z,97693.66
2023-02-03T10:51:40.432Z,97687.38
2023-02-03T10:53:46.383Z,97701.09
2023-02-03T10:55:55.009Z,97703.22
2023-02-03T10:58:16.515Z,97701.16
2023-02-03T11:00:30.857Z,97701.81
2023-02-03T11:02:35.760Z,97695.56
2023-02-03T11:04:40.601Z,97680.31
2023-02-03T11:06:58.019Z,97680.56
2023-02-03T11:09:03.920Z,97679.50
2023-02-03T11:11:11.342Z,97665.56
2023-02-03T11:13:22.098Z,97677.66
2023-02-03T11:15:27.096Z,97669.28
2023-02-03T11:17:34.600Z,97672.72
2023-02-03T11:19:42.200Z,97664.59
2023-02-03T11:21:50.750Z,97655.06
2023-02-03T11:24:00.155Z,97649.31
2023-02-03T11:26:14.639Z,97635.66
2023-02-03T11:28:22.217Z,97635.53
2023-02-03T11:30:30.580Z,97636.22
2023-02-03T11:32:38.269Z,97627.44
2023-02-03T11:34:49.030Z,97626.81
2023-02-03T11:36:53.978Z,97617.16
2023-02-03T11:39:24.151Z,97613.28
2023-02-03T11:41:28.830Z,97607.84
2023-02-03T11:43:36.256Z,97600.56
2023-02-03T11:45:44.616Z,97589.81
2023-02-03T11:47:53.747Z,97601.97
2023-02-03T11:50:10.939Z,97577.72
2023-02-03T11:52:35.320Z,97565.88
2023-02-03T11:54:46.896Z,97554.28
2023-02-03T11:57:13.951Z,97534.78
2023-02-03T12:00:03.482Z,97522.94
2023-02-03T12:02:39.963Z,97540.34
2023-02-03T12:05:12.243Z,97537.94
2023-02-03T12:07:48.905Z,97524.25
2023-02-03T12:09:59.670Z,97540.91
2023-02-03T12:12:24.680Z,97529.31
2023-02-03T12:14:45.913Z,97528.53
2023-02-03T12:17:09.863Z,97514.81
2023-02-03T12:19:23.141Z,97510.88
2023-02-03T12:21:45.503Z,97513.22
2023-02-03T12:23:59.184Z,97507.16
2023-02-03T12:26:17.141Z,97496.34
2023-02-03T12:28:42.602Z,97513.53
2023-02-03T12:30:52.315Z,97516.94
2023-02-03T12:33:00.964Z,97516.94
2023-02-03T12:35:19.325Z,97506.94
2023-02-03T12:37:33.462Z,97502.19
2023-02-03T12:39:45.932Z,97502.22
2023-02-03T12:41:55.422Z,97501.72
2023-02-03T12:44:04.722Z,97499.06
2023-02-03T12:46:17.197Z,97505.16
2023-02-03T12:48:26.571Z,97490.09
2023-02-03T12:50:37.210Z,97504.34
2023-02-03T12:52:50.495Z,97488.50
2023-02-03T12:55:02.642Z,97493.00
2023-02-03T12:57:18.809Z,97504.59
2023-02-03T12:59:28.440Z,97505.66
2023-02-03T13:01:38.296Z,97492.19
2023-02-03T13:03:48.706Z,97496.44
2023-02-03T13:06:00.960Z,97495.63
2023-02-03T13:08:17.786Z,97503.78
2023-02-03T13:10:29.783Z,97487.69
2023-02-03T13:12:41.177Z,97502.75
2023-02-03T13:14:50.494Z,97505.13
2023-02-03T13:17:00.378Z,97492.97
2023-02-03T13:19:09.020Z,97489.03
2023-02-03T13:21:14.834Z,97464.44
2023-02-03T13:23:22.745Z,97484.78
2023-02-03T13:25:34.301Z,97474.75
2023-02-03T13:27:45.725Z,97479.50
2023-02-03T13:30:07.759Z,97463.91
2023-02-03T13:32:27.229Z,97442.00
2023-02-03T13:34:52.664Z,97451.50
2023-02-03T13:37:15.992Z,97431.41
2023-02-03T13:39:42.864Z,97435.09
2023-02-03T13:41:51.134Z,97449.59
2023-02-03T13:43:57.783Z,97444.84
2023-02-03T13:46:03.450Z,97427.44
2023-02-03T13:48:13.938Z,97431.13
2023-02-03T13:50:25.669Z,97432.72
2023-02-03T13:52:37.185Z,97426.63
2023-02-03T13:54:47.302Z,97416.06
2023-02-03T13:56:58.363Z,97419.50
2023-02-03T13:59:07.180Z,97406.31
2023-02-03T14:01:33.464Z,97396.53
2023-02-03T14:03:48.655Z,97396.53
2023-02-03T14:05:55.113Z,97396.81
2023-02-03T14:07:59.988Z,97379.09
2023-02-03T14:10:19.329Z,97393.34
2023-02-03T14:13:02.428Z,97399.94
2023-02-03T14:15:31.489Z,97398.09
2023-02-03T14:18:26.960Z,97390.19
2023-02-03T14:20:54.524Z,97379.06
2023-02-03T14:23:02.262Z,97367.47
2023-02-03T14:25:09.829Z,97354.00
2023-02-03T14:27:26.199Z,97352.94
2023-02-03T14:29:32.929Z,97353.75
2023-02-03T14:31:57.188Z,97353.47
2023-02-03T14:34:17.155Z,97347.66
2023-02-03T14:36:38.160Z,97330.00
2023-02-03T14:38:44.578Z,97328.41
2023-02-03T14:40:56.906Z,97300.44
2023-02-03T14:43:34.864Z,97305.44
2023-02-03T14:46:02.513Z,97314.66
2023-02-03T14:48:23.791Z,97316.50
2023-02-03T14:50:46.264Z,97325.75
2023-02-03T14:53:12.775Z,97332.63
2023-02-03T14:55:31.296Z,97346.34
2023-02-03T14:57:43.916Z,97358.50
2023-02-03T14:59:57.532Z,97374.88
2023-02-03T15:02:14.839Z,97367.44
2023-02-03T15:04:27.375Z,97369.84
2023-02-03T15:06:42.752Z,97365.91
2023-02-03T15:08:49.002Z,97368.53
2023-02-03T15:10:53.767Z,97382.03
2023-02-03T15:13:00.860Z,97389.97
2023-02-03T15:15:24.266Z,97386.50
2023-02-03T15:17:31.425Z,97364.59
2023-02-03T15:19:38.257Z,97365.38
2023-02-03T15:21:44.932Z,97360.38
2023-02-03T15:23:52.158Z,97372.53
2023-02-03T15:25:58.063Z,97364.34
2023-02-03T15:28:17.148Z,97354.03
2023-02-03T15:30:28.503Z,97356.69
2023-02-03T15:32:37.952Z,97366.19
2023-02-03T15:34:46.600Z,97354.81
2023-02-03T15:36:54.646Z,97350.34
2023-02-03T15:39:05.013Z,97327.38
2023-02-03T15:41:13.921Z,97335.03
2023-02-03T15:43:22.206Z,97333.47
2023-02-03T15:45:32.924Z,97356.69
2023-02-03T15:47:44.472Z,97361.19
2023-02-03T15:49:53.201Z,97327.91
2023-02-03T15:52:02.442Z,97361.44
2023-02-03T15:54:14.610Z,97371.19
2023-02-03T15:56:27.552Z,97373.81
2023-02-03T15:58:36.219Z,97387.84
2023-02-03T16:00:44.075Z,97380.19
2023-02-03T16:02:49.687Z,97391.53
2023-02-03T16:04:55.005Z,97391.53
2023-02-03T16:07:00.748Z,97386.25
2023-02-03T16:09:07.104Z,97395.19
2023-02-03T16:11:26.434Z,97383.34
2023-02-03T16:13:33.485Z,97371.44
2023-02-03T16:15:39.149Z,97389.13
2023-02-03T16:17:46.505Z,97372.78
2023-02-03T16:19:51.405Z,97376.72
2023-02-03T16:21:59.815Z,97387.28
2023-02-03T16:24:05.411Z,97399.19
2023-02-03T16:26:21.138Z,97372.50
2023-02-03T16:28:38.313Z,97374.09
2023-02-03T16:31:07.249Z,97378.28
2023-02-03T16:33:33.611Z,97380.09
2023-02-03T16:35:50.814Z,97380.38
2023-02-03T16:38:08.011Z,97392.78
2023-02-03T16:40:26.836Z,97395.94
2023-02-03T16:42:53.173Z,97395.63
2023-02-03T16:45:10.334Z,97398.28
2023-02-03T16:47:39.186Z,97374.78
2023-02-03T16:49:59.168Z,97355.53
2023-02-03T16:52:06.731Z,97362.94
2023-02-03T16:54:17.465Z,97376.13
2023-02-03T16:56:22.168Z,97396.72
2023-02-03T16:58:27.328Z,97374.56
2023-02-03T17:00:32.275Z,97392.22
2023-02-03T17:02:36.992Z,97399.34
2023-02-03T17:04:41.719Z,97391.44
2023-02-03T17:06:51.239Z,97388.25
2023-02-03T17:08:57.837Z,97392.75
2023-02-03T17:11:09.314Z,97395.13
2023-02-03T17:13:14.996Z,97395.63
2023-02-03T17:15:20.131Z,97399.31
2023-02-03T17:17:24.841Z,97414.59
2023-02-03T17:19:29.603Z,97428.28
2023-02-03T17:21:34.697Z,97402.72
2023-02-03T17:23:42.769Z,97395.31
2023-02-03T17:25:48.496Z,97392.44
2023-02-03T17:27:53.263Z,97389.25
2023-02-03T17:29:58.117Z,97384.22
2023-02-03T17:32:02.994Z,97390.31
2023-02-03T17:34:07.751Z,97368.66
2023-02-03T17:36:15.340Z,97362.84
2023-02-03T17:38:20.182Z,97367.28
2023-02-03T17:54:22.482Z,97307.50
2023-02-03T17:56:29.829Z,97301.44
2023-02-03T17:58:34.543Z,97308.28
2023-02-03T18:00:39.196Z,97333.81
2023-02-03T18:02:44.658Z,97322.78
2023-02-03T18:04:49.446Z,97303.81
2023-02-03T18:06:54.634Z,97326.47
2023-02-03T18:09:01.858Z,97289.84
2023-02-03T18:11:07.219Z,97278.50
2023-02-03T18:13:14.480Z,97291.69
2023-02-03T18:15:19.623Z,97304.88
2023-02-03T18:17:24.343Z,97343.63
2023-02-03T18:19:29.068Z,97352.84
2023-02-03T18:21:37.608Z,97373.91
2023-02-03T18:23:42.767Z,97368.41
2023-02-03T18:25:47.436Z,97369.19
2023-02-03T18:27:53.791Z,97392.38
2023-02-03T18:30:01.744Z,97387.34
2023-02-03T18:32:06.799Z,97381.56
2023-02-03T18:34:11.814Z,97375.78
2023-02-03T18:36:18.380Z,97354.19
2023-02-03T18:38:23.598Z,97339.16
2023-02-03T18:40:28.820Z,97314.91
2023-02-03T18:42:33.810Z,97314.13
2023-02-03T18:44:39.668Z,97335.72
2023-02-03T18:46:46.960Z,97313.31
2023-02-03T18:48:51.710Z,97304.34
2023-02-03T18:50:56.618Z,97298.28
2023-02-03T18:53:01.556Z,97299.84
2023-02-03T18:55:06.314Z,97334.66
2023-02-03T18:57:13.338Z,97351.81
2023-02-03T18:59:18.035Z,97367.63
2023-02-03T19:01:25.648Z,97365.25
2023-02-03T19:03:32.989Z,97363.13
2023-02-03T19:05:37.943Z,97361.06
2023-02-03T19:07:42.664Z,97353.94
2023-02-03T19:09:47.401Z,97348.97
2023-02-03T19:11:52.105Z,97348.97
2023-02-03T19:13:56.950Z,97358.19
2023-02-03T19:16:02.462Z,97361.06
2023-02-03T19:18:07.318Z,97364.53
2023-02-03T19:20:16.130Z,97374.00
2023-02-03T19:22:20.889Z,97377.66
2023-02-03T19:24:26.877Z,97366.59
2023-02-03T19:26:31.736Z,97371.56
2023-02-03T19:28:36.458Z,97368.13
2023-02-03T19:30:41.299Z,97373.16
2023-02-03T19:32:46.168Z,97352.84
2023-02-03T19:34:50.868Z,97346.53
2023-02-03T19:36:59.215Z,97339.41
2023-02-03T19:39:03.909Z,97334.69
2023-02-03T19:41:09.647Z,97356.56
2023-02-03T19:43:14.434Z,97351.84
2023-02-03T19:45:19.534Z,97361.34
2023-02-03T19:47:24.298Z,97352.38
2023-02-03T19:49:29.005Z,97357.66
2023-02-03T19:51:33.695Z,97362.94
2023-02-03T19:53:40.955Z,97374.00
2023-02-03T19:55:46.139Z,97369.75
2023-02-03T19:57:50.846Z,97378.69
2023-02-03T19:59:56.730Z,97382.16
2023-02-03T20:02:12.682Z,97388.22
2023-02-03T20:04:18.725Z,97379.25
2023-02-03T20:06:23.806Z,97386.91
2023-02-03T20:08:28.678Z,97385.31
2023-02-03T20:10:36.170Z,97388.72
2023-02-03T20:12:40.905Z,97377.38
2023-02-03T20:14:45.597Z,97383.44
2023-02-03T20:16:51.213Z,97394.78
2023-02-03T20:18:56.306Z,97385.31
2023-02-03T20:21:01.647Z,97397.16
2023-02-03T20:23:06.408Z,97404.34
2023-02-03T20:25:12.186Z,97385.09
2023-02-03T20:27:20.466Z,97394.63
2023-02-03T20:29:25.206Z,97398.28
2023-02-03T20:31:29.932Z,97412.53
2023-02-03T20:33:35.532Z,97420.72
2023-02-03T20:35:41.073Z,97425.50
2023-02-03T20:37:45.834Z,97399.91
2023-02-03T20:39:50.604Z,97408.06
2023-02-03T20:41:55.678Z,97415.72
2023-02-03T20:44:02.974Z,97429.16
2023-02-03T20:46:13.692Z,97443.41
2023-02-03T20:48:20.269Z,97443.13
2023-02-03T20:50:40.656Z,97416.78
2023-02-03T20:52:46.447Z,97427.06
2023-02-03T20:54:51.217Z,97423.13
2023-02-03T20:56:56.306Z,97428.97
2023-02-03T20:59:03.914Z,97438.69
2023-02-03T21:01:16.283Z,97441.31
2023-02-03T21:03:35.002Z,97436.03
2023-02-03T21:05:41.999Z,97438.94
2023-02-03T21:07:46.689Z,97439.72
2023-02-03T21:09:51.360Z,97448.97
2023-02-03T21:11:56.976Z,97440.81
2023-02-03T21:14:06.456Z,97444.78
2023-02-03T21:16:20.258Z,97433.41
2023-02-03T21:18:35.509Z,97446.09
2023-02-03T21:20:40.582Z,97456.91
2023-02-03T21:22:45.228Z,97443.47
2023-02-03T21:24:53.794Z,97442.16
2023-02-03T21:26:59.247Z,97447.16
2023-02-03T21:29:06.592Z,97448.22
2023-02-03T21:31:21.624Z,97447.44
2023-02-03T21:33:35.464Z,97445.56
2023-02-03T21:35:40.825Z,97438.75
2023-02-03T21:37:45.569Z,97449.03
2023-02-03T21:39:51.154Z,97448.78
2023-02-03T21:41:55.960Z,97461.72
2023-02-03T21:44:01.926Z,97463.88
2023-02-03T21:46:13.181Z,97450.91
2023-02-03T21:48:32.711Z,97469.31
2023-02-03T21:50:40.969Z,97479.66
2023-02-03T21:52:45.795Z,97467.50
2023-02-03T21:54:50.508Z,97463.81
2023-02-03T21:56:55.579Z,97465.91
2023-02-03T21:59:00.518Z,97467.19
2023-02-03T22:01:09.083Z,97474.59
2023-02-03T22:03:21.901Z,97483.00
2023-02-03T22:05:27.144Z,97471.63
2023-02-03T22:07:32.000Z,97481.97
2023-02-03T22:09:36.709Z,97487.25
2023-02-03T22:11:41.449Z,97492.75
2023-02-03T22:13:46.145Z,97493.25
2023-02-03T22:15:51.074Z,97510.13
2023-02-03T22:17:58.469Z,97501.66
2023-02-03T22:20:03.214Z,97508.03
2023-02-03T22:22:07.884Z,97507.78
2023-02-03T22:24:12.662Z,97503.28
2023-02-03T22:26:18.301Z,97506.19
2023-02-03T22:28:23.094Z,97506.44
2023-02-03T22:30:27.871Z,97510.94
2023-02-03T22:32:32.733Z,97507.50
2023-02-03T22:34:40.001Z,97503.00
2023-02-03T22:36:44.672Z,97510.41
2023-02-03T22:38:49.330Z,97508.09
2023-02-03T22:40:55.517Z,97518.63
2023-02-03T22:43:00.355Z,97514.94
2023-02-03T22:45:05.083Z,97516.53
2023-02-03T22:47:09.784Z,97517.88
2023-02-03T22:49:14.578Z,97504.44
2023-02-03T22:51:21.804Z,97532.09
2023-02-03T22:53:26.747Z,97537.91
2023-02-03T22:55:31.517Z,97535.53
2023-02-03T22:57:38.175Z,97531.31
2023-02-03T22:59:42.844Z,97545.03
2023-02-03T23:01:47.558Z,97553.25
2023-02-03T23:03:52.207Z,97564.34
2023-02-03T23:05:56.992Z,97570.19
2023-02-03T23:08:04.422Z,97558.59
2023-02-03T23:10:11.243Z,97563.09
2023-02-03T23:12:15.942Z,97576.06
2023-02-03T23:14:20.683Z,97579.50
2023-02-03T23:16:25.346Z,97584.78
2023-02-03T23:18:30.044Z,97579.25
2023-02-03T23:20:36.070Z,97574.75
2023-02-03T23:22:40.900Z,97572.66
2023-02-03T23:24:48.257Z,97576.09
2023-02-03T23:26:52.993Z,97579.00
2023-02-03T23:28:57.693Z,97582.47
2023-02-03T23:31:03.914Z,97581.66
2023-02-03T23:33:08.833Z,97585.91
2023-02-03T23:35:26.198Z,97580.63
2023-02-03T23:37:31.090Z,97599.34
2023-02-03T23:39:35.812Z,97583.75
2023-02-03T23:41:43.073Z,97597.47
2023-02-03T23:43:47.820Z,97604.31
2023-02-03T23:45:52.554Z,97595.09
2023-02-03T23:47:57.426Z,97601.47
2023-02-03T23:50:02.109Z,97608.09
2023-02-03T23:52:07.470Z,97607.84
2023-02-03T23:54:12.135Z,97612.09
2023-02-03T23:56:16.868Z,97619.50
2023-02-03T23:58:24.277Z,97614.47
